createdAt,value
2022-08-28T00:00:41.847Z,15.82
2022-08-28T00:03:10.972Z,13.75
2022-08-28T00:05:39.942Z,13.95
2022-08-28T00:08:08.262Z,15.30
2022-08-28T00:10:35.835Z,13.07
2022-08-28T00:13:02.759Z,13.68
2022-08-28T00:15:32.744Z,12.23
2022-08-28T00:18:00.819Z,12.75
2022-08-28T00:20:29.399Z,12.80
2022-08-28T00:22:56.758Z,13.32
2022-08-28T00:25:27.382Z,12.68
2022-08-28T00:27:57.438Z,12.18
2022-08-28T00:30:25.175Z,12.85
2022-08-28T00:32:54.644Z,12.55
2022-08-28T00:35:23.323Z,13.02
2022-08-28T00:37:51.241Z,13.05
2022-08-28T00:40:32.321Z,13.23
2022-08-28T00:43:02.641Z,13.15
2022-08-28T00:45:30.828Z,12.63
2022-08-28T00:47:58.485Z,12.13
2022-08-28T00:50:50.498Z,12.43
2022-08-28T00:53:18.621Z,12.40
2022-08-28T00:55:45.615Z,12.88
2022-08-28T00:58:13.821Z,11.77
2022-08-28T01:00:41.215Z,12.18
2022-08-28T01:03:08.924Z,11.57
2022-08-28T01:05:36.722Z,11.82
2022-08-28T01:08:04.458Z,11.57
2022-08-28T01:10:55.603Z,12.40
2022-08-28T01:13:25.942Z,11.98
2022-08-28T01:15:53.922Z,11.77
2022-08-28T01:18:22.093Z,12.80
2022-08-28T01:21:05.622Z,11.48
2022-08-28T01:23:57.791Z,11.43
2022-08-28T01:26:26.862Z,11.95
2022-08-28T01:28:54.090Z,12.55
2022-08-28T01:31:21.704Z,10.95
2022-08-28T01:33:49.026Z,11.75
2022-08-28T01:36:15.984Z,11.20
2022-08-28T01:38:46.300Z,12.20
2022-08-28T01:41:14.067Z,12.68
2022-08-28T01:43:42.974Z,12.05
2022-08-28T01:46:12.314Z,11.75
2022-08-28T01:48:42.573Z,11.25
2022-08-28T01:51:10.677Z,12.05
2022-08-28T01:53:38.488Z,11.55
2022-08-28T01:56:10.444Z,11.98
2022-08-28T01:58:38.514Z,11.38
2022-08-28T02:01:10.948Z,10.85
2022-08-28T02:03:38.113Z,12.10
2022-08-28T02:06:06.211Z,10.63
2022-08-28T02:08:33.089Z,11.35
2022-08-28T02:11:06.322Z,11.85
2022-08-28T02:13:35.454Z,10.90
2022-08-28T02:16:05.088Z,10.40
2022-08-28T02:18:32.054Z,10.68
2022-08-28T02:20:59.428Z,10.45
2022-08-28T02:23:26.292Z,11.00
2022-08-28T02:25:53.483Z,11.05
2022-08-28T02:28:20.471Z,11.57
2022-08-28T02:30:47.383Z,11.80
2022-08-28T02:33:14.851Z,10.32
2022-08-28T02:35:42.995Z,10.45
2022-08-28T02:38:10.875Z,11.10
2022-08-28T02:40:38.686Z,11.32
2022-08-28T02:43:06.040Z,11.90
2022-08-28T02:45:33.326Z,10.77
2022-08-28T02:48:01.944Z,10.90
2022-08-28T02:50:31.118Z,11.38
2022-08-28T02:52:58.427Z,11.75
2022-08-28T02:55:25.495Z,10.32
2022-08-28T02:57:52.932Z,11.20
2022-08-28T03:00:23.068Z,9.35
2022-08-28T03:02:50.512Z,10.80
2022-08-28T03:05:21.075Z,10.20
2022-08-28T03:07:49.291Z,10.93
2022-08-28T03:10:17.110Z,10.60
2022-08-28T03:12:43.945Z,10.38
2022-08-28T03:15:11.310Z,9.60
2022-08-28T03:17:38.567Z,10.73
2022-08-28T03:20:08.636Z,9.80
2022-08-28T03:22:55.349Z,10.60
2022-08-28T03:25:22.526Z,10.27
2022-08-28T03:27:52.882Z,10.25
2022-08-28T03:30:21.375Z,10.50
2022-08-28T03:32:48.509Z,10.30
2022-08-28T03:35:15.840Z,10.57
2022-08-28T03:37:43.097Z,10.93
2022-08-28T03:40:10.955Z,10.25
2022-08-28T03:42:37.865Z,9.07
2022-08-28T03:45:08.079Z,9.85
2022-08-28T03:47:37.443Z,10.60
2022-08-28T03:50:05.086Z,8.90
2022-08-28T03:52:32.524Z,10.13
2022-08-28T03:54:59.391Z,10.23
2022-08-28T03:57:26.499Z,10.10
2022-08-28T03:59:53.926Z,9.95
2022-08-28T04:02:20.870Z,10.00
2022-08-28T04:04:50.119Z,10.15
2022-08-28T04:07:18.787Z,10.70
2022-08-28T04:09:46.127Z,10.00
2022-08-28T04:12:13.337Z,9.98
2022-08-28T04:14:40.307Z,9.50
2022-08-28T04:17:07.806Z,9.82
2022-08-28T04:19:34.777Z,10.45
2022-08-28T04:22:01.961Z,10.60
2022-08-28T04:24:28.813Z,10.15
2022-08-28T04:26:55.666Z,10.00
2022-08-28T04:29:23.218Z,10.70
2022-08-28T04:31:50.516Z,11.05
2022-08-28T04:34:18.072Z,10.45
2022-08-28T04:36:46.050Z,10.68
2022-08-28T04:39:13.228Z,10.00
2022-08-28T04:41:40.115Z,10.15
2022-08-28T04:44:07.403Z,9.60
2022-08-28T04:46:35.094Z,9.85
2022-08-28T04:49:01.927Z,10.02
2022-08-28T04:51:29.043Z,9.35
2022-08-28T04:53:56.742Z,9.73
2022-08-28T04:56:24.326Z,8.82
2022-08-28T04:58:51.280Z,8.82
2022-08-28T05:01:21.204Z,9.73
2022-08-28T05:03:52.016Z,9.98
2022-08-28T05:06:18.862Z,9.15
2022-08-28T05:08:45.731Z,9.57
2022-08-28T05:11:32.916Z,9.15
2022-08-28T05:14:02.760Z,8.70
2022-08-28T05:16:29.610Z,9.82
2022-08-28T05:19:00.608Z,8.48
2022-08-28T05:21:28.307Z,8.57
2022-08-28T05:23:57.621Z,8.07
2022-08-28T05:26:27.078Z,9.38
2022-08-28T05:28:56.568Z,8.43
2022-08-28T05:31:25.059Z,8.60
2022-08-28T05:33:52.889Z,8.43
2022-08-28T05:36:22.636Z,8.52
2022-08-28T05:38:50.277Z,8.05
2022-08-28T05:41:22.739Z,8.88
2022-08-28T05:43:50.090Z,8.45
2022-08-28T05:46:17.804Z,8.68
2022-08-28T05:48:45.685Z,8.63
2022-08-28T05:51:15.353Z,8.63
2022-08-28T05:53:44.220Z,8.73
2022-08-28T05:56:14.924Z,9.18
2022-08-28T05:58:42.235Z,8.88
2022-08-28T06:01:10.809Z,9.20
2022-08-28T06:03:38.888Z,8.75
2022-08-28T06:06:07.063Z,8.32
2022-08-28T06:08:34.527Z,7.50
2022-08-28T06:11:03.359Z,7.82
2022-08-28T06:13:30.985Z,7.43
2022-08-28T06:15:58.405Z,7.75
2022-08-28T06:18:26.188Z,6.97
2022-08-28T06:20:54.196Z,6.80
2022-08-28T06:23:23.806Z,6.88
2022-08-28T06:25:54.213Z,7.68
2022-08-28T06:28:25.460Z,7.03
2022-08-28T06:31:18.561Z,6.97
2022-08-28T06:33:40.245Z,7.18
2022-08-28T06:36:07.861Z,7.85
2022-08-28T06:38:34.986Z,7.55
2022-08-28T06:41:02.493Z,7.03
2022-08-28T06:43:29.893Z,7.13
2022-08-28T06:45:58.020Z,7.45
2022-08-28T06:48:28.241Z,6.90
2022-08-28T06:50:57.015Z,6.50
2022-08-28T06:53:26.843Z,6.15
2022-08-28T06:56:01.966Z,6.00
2022-08-28T06:58:29.400Z,5.80
2022-08-28T07:01:14.784Z,5.30
2022-08-28T07:03:44.386Z,6.10
2022-08-28T07:06:13.665Z,5.97
2022-08-28T07:08:41.789Z,5.50
2022-08-28T07:11:22.035Z,5.65
2022-08-28T07:13:53.850Z,5.40
2022-08-28T07:16:23.653Z,5.35
2022-08-28T07:18:50.829Z,6.13
2022-08-28T07:21:17.655Z,5.32
2022-08-28T07:23:46.096Z,5.47
2022-08-28T07:26:19.327Z,5.57
2022-08-28T07:28:46.238Z,5.65
2022-08-28T07:31:20.528Z,5.15
2022-08-28T07:33:50.792Z,5.88
2022-08-28T07:36:29.764Z,5.57
2022-08-28T07:38:58.903Z,5.22
2022-08-28T07:41:31.693Z,5.03
2022-08-28T07:44:17.455Z,5.75
2022-08-28T07:46:45.008Z,4.63
2022-08-28T07:49:13.058Z,4.90
2022-08-28T07:51:39.875Z,5.05
2022-08-28T07:54:16.901Z,5.00
2022-08-28T07:56:45.993Z,5.50
2022-08-28T07:59:16.870Z,5.10
2022-08-28T08:01:46.693Z,5.05
2022-08-28T08:04:16.264Z,5.35
2022-08-28T08:06:44.802Z,5.80
2022-08-28T08:09:14.190Z,4.85
2022-08-28T08:11:42.455Z,4.97
2022-08-28T08:14:10.003Z,5.00
2022-08-28T08:16:42.613Z,4.95
2022-08-28T08:19:13.889Z,4.90
2022-08-28T08:21:46.784Z,5.25
2022-08-28T08:24:21.093Z,4.97
2022-08-28T08:26:56.507Z,5.50
2022-08-28T08:29:33.295Z,4.80
2022-08-28T08:32:06.043Z,4.93
2022-08-28T08:34:40.214Z,4.85
2022-08-28T08:37:07.343Z,4.70
2022-08-28T08:39:35.891Z,5.05
2022-08-28T08:42:06.920Z,4.82
2022-08-28T08:44:43.473Z,4.75
2022-08-28T08:47:40.050Z,5.13
2022-08-28T08:50:18.081Z,5.00
2022-08-28T08:53:08.040Z,4.50
2022-08-28T08:55:42.118Z,4.20
2022-08-28T08:58:31.992Z,4.10
2022-08-28T09:01:22.200Z,4.03
2022-08-28T09:04:00.991Z,4.57
2022-08-28T09:06:50.623Z,4.25
2022-08-28T09:09:21.760Z,4.10
2022-08-28T09:12:07.354Z,3.47
2022-08-28T09:14:58.319Z,4.00
2022-08-28T09:17:31.500Z,4.15
2022-08-28T09:19:58.513Z,3.80
2022-08-28T09:22:25.336Z,3.70
2022-08-28T09:24:52.233Z,3.60
2022-08-28T09:27:29.021Z,3.97
2022-08-28T09:30:07.522Z,4.55
2022-08-28T09:32:43.776Z,3.90
2022-08-28T09:35:28.123Z,4.78
2022-08-28T09:37:56.688Z,3.90
2022-08-28T09:40:49.988Z,4.32
2022-08-28T09:43:26.710Z,3.92
2022-08-28T09:46:30.478Z,3.80
2022-08-28T09:49:13.425Z,3.92
2022-08-28T09:51:40.688Z,3.97
2022-08-28T09:54:30.837Z,3.50
2022-08-28T09:56:57.823Z,4.45
2022-08-28T09:59:27.724Z,3.70
2022-08-28T10:02:25.501Z,3.78
2022-08-28T10:04:59.725Z,3.60
2022-08-28T10:07:48.079Z,4.05
2022-08-28T10:10:29.089Z,4.40
2022-08-28T10:13:14.170Z,3.90
2022-08-28T10:15:53.102Z,4.00
2022-08-28T10:18:44.332Z,3.92
2022-08-28T10:21:40.675Z,3.95
2022-08-28T10:24:13.512Z,4.45
2022-08-28T10:27:05.202Z,4.18
2022-08-28T10:29:34.861Z,4.18
2022-08-28T10:32:23.210Z,4.05
2022-08-28T10:34:52.771Z,3.80
2022-08-28T10:37:42.392Z,4.13
2022-08-28T10:40:17.976Z,3.90
2022-08-28T10:43:09.698Z,3.33
2022-08-28T10:45:39.080Z,3.75
2022-08-28T10:48:21.850Z,3.63
2022-08-28T10:50:56.535Z,3.78
2022-08-28T10:53:50.838Z,3.50
2022-08-28T10:56:23.379Z,3.90
2022-08-28T10:58:55.518Z,3.70
2022-08-28T11:01:38.602Z,3.65
2022-08-28T11:04:23.446Z,4.00
2022-08-28T11:06:58.645Z,3.60
2022-08-28T11:09:38.937Z,3.92
2022-08-28T11:12:34.116Z,3.30
2022-08-28T11:15:29.488Z,3.97
2022-08-28T11:18:18.844Z,4.28
2022-08-28T11:21:03.291Z,4.00
2022-08-28T11:23:47.040Z,3.67
2022-08-28T11:26:22.515Z,3.70
2022-08-28T11:28:49.538Z,3.38
2022-08-28T11:31:29.197Z,3.42
2022-08-28T11:33:59.081Z,3.67
2022-08-28T11:36:28.213Z,3.47
2022-08-28T11:38:55.441Z,3.38
2022-08-28T11:42:03.980Z,4.20
2022-08-28T11:44:45.957Z,3.67
2022-08-28T11:47:44.462Z,3.50
2022-08-28T11:50:28.065Z,4.03
2022-08-28T11:53:15.911Z,3.92
2022-08-28T11:56:32.220Z,3.90
2022-08-28T11:59:35.259Z,3.78
2022-08-28T12:02:39.808Z,4.32
2022-08-28T12:05:31.418Z,3.83
2022-08-28T12:08:00.794Z,4.43
2022-08-28T12:10:27.875Z,3.60
2022-08-28T12:13:08.371Z,3.67
2022-08-28T12:15:35.297Z,3.80
2022-08-28T12:18:02.211Z,4.57
2022-08-28T12:20:51.051Z,4.57
2022-08-28T12:23:23.982Z,4.05
2022-08-28T12:26:04.198Z,4.32
2022-08-28T12:28:33.914Z,4.28
2022-08-28T12:31:53.523Z,4.50
2022-08-28T12:34:38.866Z,4.20
2022-08-28T12:37:20.672Z,4.25
2022-08-28T12:39:47.696Z,4.25
2022-08-28T12:42:20.076Z,4.20
2022-08-28T12:44:48.235Z,4.00
2022-08-28T12:47:18.961Z,3.80
2022-08-28T12:49:45.889Z,4.13
2022-08-28T12:52:21.212Z,4.30
2022-08-28T12:54:50.333Z,3.83
2022-08-28T12:57:20.712Z,4.13
2022-08-28T12:59:50.381Z,4.10
2022-08-28T13:02:31.933Z,3.80
2022-08-28T13:05:05.045Z,4.00
2022-08-28T13:07:40.996Z,4.32
2022-08-28T13:10:30.393Z,3.97
2022-08-28T13:13:08.231Z,4.18
2022-08-28T13:15:46.332Z,4.18
2022-08-28T13:18:38.148Z,3.95
2022-08-28T13:21:36.180Z,4.47
2022-08-28T13:24:23.965Z,4.30
2022-08-28T13:27:04.649Z,4.07
2022-08-28T13:29:32.806Z,4.68
2022-08-28T13:32:02.067Z,4.07
2022-08-28T13:34:34.484Z,3.83
2022-08-28T13:37:07.258Z,4.32
2022-08-28T13:39:41.981Z,4.72
2022-08-28T13:42:12.504Z,4.20
2022-08-28T13:44:45.185Z,4.22
2022-08-28T13:47:13.666Z,4.28
2022-08-28T13:49:40.622Z,4.35
2022-08-28T13:52:14.389Z,4.25
2022-08-28T13:54:43.536Z,4.22
2022-08-28T13:57:14.311Z,4.10
2022-08-28T13:59:41.705Z,4.13
2022-08-28T14:02:31.165Z,4.13
2022-08-28T14:04:58.317Z,3.88
2022-08-28T14:07:25.405Z,3.92
2022-08-28T14:09:56.257Z,4.15
2022-08-28T14:12:32.950Z,4.18
2022-08-28T14:15:01.726Z,4.07
2022-08-28T14:17:29.045Z,3.80
2022-08-28T14:19:56.055Z,4.00
2022-08-28T14:22:23.003Z,4.20
2022-08-28T14:24:49.938Z,3.95
2022-08-28T14:27:17.324Z,4.03
2022-08-28T14:29:44.332Z,4.13
2022-08-28T14:32:11.258Z,4.03
2022-08-28T14:34:38.418Z,4.43
2022-08-28T14:37:06.364Z,4.10
2022-08-28T14:39:33.675Z,4.20
2022-08-28T14:42:01.899Z,4.32
2022-08-28T14:44:28.851Z,4.47
2022-08-28T14:46:57.377Z,3.80
2022-08-28T14:49:25.869Z,4.15
2022-08-28T14:51:54.198Z,4.20
2022-08-28T14:54:23.095Z,4.28
2022-08-28T14:56:51.022Z,3.92
2022-08-28T14:59:29.805Z,4.40
2022-08-28T15:02:00.039Z,4.43
2022-08-28T15:04:34.409Z,4.18
2022-08-28T15:07:05.463Z,4.65
2022-08-28T15:09:35.802Z,4.63
2022-08-28T15:12:03.057Z,4.15
2022-08-28T15:14:30.419Z,4.18
2022-08-28T15:16:57.498Z,4.70
2022-08-28T15:19:24.542Z,4.10
2022-08-28T15:21:54.875Z,3.85
2022-08-28T15:24:29.761Z,4.05
2022-08-28T15:26:57.701Z,4.68
2022-08-28T15:29:24.569Z,4.18
2022-08-28T15:31:52.859Z,4.10
2022-08-28T15:34:22.996Z,4.63
2022-08-28T15:36:55.063Z,3.90
2022-08-28T15:39:46.528Z,4.55
2022-08-28T15:42:14.165Z,4.32
2022-08-28T15:44:41.503Z,4.00
2022-08-28T15:47:09.864Z,3.70
2022-08-28T15:49:43.563Z,4.10
2022-08-28T15:52:15.650Z,4.57
2022-08-28T15:54:43.253Z,4.40
2022-08-28T15:57:10.220Z,4.13
2022-08-28T15:59:48.479Z,3.90
2022-08-28T16:02:22.094Z,3.88
2022-08-28T16:04:50.302Z,4.47
2022-08-28T16:07:18.834Z,4.28
2022-08-28T16:09:46.869Z,4.40
2022-08-28T16:12:14.627Z,4.25
2022-08-28T16:14:41.575Z,4.10
2022-08-28T16:17:11.081Z,4.18
2022-08-28T16:19:42.242Z,4.07
2022-08-28T16:22:11.146Z,4.55
2022-08-28T16:24:38.365Z,4.47
2022-08-28T16:27:06.474Z,4.60
2022-08-28T16:29:36.712Z,4.18
2022-08-28T16:32:05.274Z,4.13
2022-08-28T16:34:34.148Z,4.40
2022-08-28T16:37:01.154Z,4.50
2022-08-28T16:39:28.662Z,4.43
2022-08-28T16:41:55.630Z,4.32
2022-08-28T16:44:26.113Z,4.32
2022-08-28T16:46:54.189Z,4.55
2022-08-28T16:49:21.761Z,4.63
2022-08-28T16:51:48.649Z,4.22
2022-08-28T16:54:18.156Z,3.97
2022-08-28T16:56:46.107Z,4.28
2022-08-28T16:59:16.518Z,4.10
2022-08-28T17:01:45.814Z,4.55
2022-08-28T17:04:20.545Z,4.72
2022-08-28T17:06:47.537Z,4.75
2022-08-28T17:09:14.714Z,4.97
2022-08-28T17:11:41.663Z,4.38
2022-08-28T17:14:11.075Z,4.30
2022-08-28T17:16:38.224Z,4.60
2022-08-28T17:19:05.183Z,4.72
2022-08-28T17:21:50.434Z,4.30
2022-08-28T17:24:17.638Z,4.85
2022-08-28T17:26:45.881Z,4.72
2022-08-28T17:29:12.888Z,4.60
2022-08-28T17:31:41.154Z,4.75
2022-08-28T17:34:08.622Z,4.25
2022-08-28T17:36:37.991Z,4.57
2022-08-28T17:39:08.277Z,4.47
2022-08-28T17:41:35.830Z,4.60
2022-08-28T17:44:05.539Z,4.35
2022-08-28T17:46:37.439Z,4.40
2022-08-28T17:49:07.097Z,4.90
2022-08-28T17:51:42.431Z,4.50
2022-08-28T17:54:15.576Z,4.80
2022-08-28T17:56:42.838Z,5.15
2022-08-28T17:59:11.262Z,4.57
2022-08-28T18:01:39.369Z,4.43
2022-08-28T18:04:06.396Z,4.85
2022-08-28T18:06:33.705Z,5.35
2022-08-28T18:09:00.913Z,5.13
2022-08-28T18:11:29.240Z,4.70
2022-08-28T18:13:56.159Z,5.20
2022-08-28T18:16:26.488Z,5.03
2022-08-28T18:18:55.850Z,5.10
2022-08-28T18:21:23.457Z,5.38
2022-08-28T18:23:50.793Z,5.10
2022-08-28T18:26:17.807Z,5.00
2022-08-28T18:28:44.788Z,5.47
2022-08-28T18:31:11.978Z,5.82
2022-08-28T18:33:39.099Z,5.93
2022-08-28T18:36:12.419Z,5.88
2022-08-28T18:38:39.740Z,5.60
2022-08-28T18:41:08.685Z,4.95
2022-08-28T18:43:36.651Z,5.97
2022-08-28T18:46:05.451Z,6.15
2022-08-28T18:48:33.226Z,6.13
2022-08-28T18:51:00.310Z,5.22
2022-08-28T18:53:28.885Z,5.72
2022-08-28T18:55:56.068Z,6.20
2022-08-28T18:58:24.296Z,5.88
2022-08-28T19:00:52.637Z,6.13
2022-08-28T19:03:22.202Z,6.28
2022-08-28T19:05:49.500Z,6.50
2022-08-28T19:08:16.762Z,7.32
2022-08-28T19:10:44.082Z,6.40
2022-08-28T19:13:11.107Z,7.32
2022-08-28T19:15:38.503Z,6.43
2022-08-28T19:18:06.066Z,6.75
2022-08-28T19:20:34.085Z,6.93
2022-08-28T19:23:01.137Z,6.80
2022-08-28T19:25:30.766Z,6.97
2022-08-28T19:27:59.627Z,6.70
2022-08-28T19:30:28.707Z,7.45
2022-08-28T19:32:55.638Z,7.15
2022-08-28T19:35:24.857Z,6.90
2022-08-28T19:37:55.240Z,7.55
2022-08-28T19:40:22.959Z,7.05
2022-08-28T19:42:50.375Z,7.95
2022-08-28T19:45:18.494Z,7.95
2022-08-28T19:47:45.757Z,8.05
2022-08-28T19:50:14.616Z,8.00
2022-08-28T19:52:43.503Z,7.57
2022-08-28T19:55:19.429Z,8.25
2022-08-28T19:57:50.090Z,8.40
2022-08-28T20:00:23.703Z,8.95
2022-08-28T20:02:52.663Z,8.00
2022-08-28T20:05:21.309Z,8.75
2022-08-28T20:07:48.630Z,8.55
2022-08-28T20:10:16.047Z,9.32
2022-08-28T20:12:48.574Z,8.80
2022-08-28T20:15:19.636Z,9.45
2022-08-28T20:17:49.465Z,9.88
2022-08-28T20:20:19.632Z,9.45
2022-08-28T20:22:46.537Z,8.80
2022-08-28T20:25:14.774Z,9.32
2022-08-28T20:27:42.126Z,9.43
2022-08-28T20:30:10.876Z,9.30
2022-08-28T20:32:40.381Z,7.80
2022-08-28T20:35:10.242Z,7.72
2022-08-28T20:37:45.495Z,6.40
2022-08-28T20:40:17.178Z,6.10
2022-08-28T20:42:45.205Z,5.22
2022-08-28T20:45:13.410Z,4.47
2022-08-28T20:47:40.319Z,5.18
2022-08-28T20:50:08.110Z,5.30
2022-08-28T20:52:35.152Z,4.80
2022-08-28T20:55:02.186Z,4.68
2022-08-28T20:57:29.126Z,4.80
2022-08-28T20:59:56.233Z,4.80
2022-08-28T21:02:26.314Z,4.75
2022-08-28T21:04:54.866Z,4.70
2022-08-28T21:07:24.336Z,5.05
2022-08-28T21:10:04.231Z,5.10
2022-08-28T21:12:34.272Z,4.93
2022-08-28T21:15:01.443Z,5.55
2022-08-28T21:17:29.571Z,5.40
2022-08-28T21:20:02.805Z,5.50
2022-08-28T21:22:31.517Z,5.28
2022-08-28T21:24:58.503Z,4.90
2022-08-28T21:27:25.505Z,4.93
2022-08-28T21:29:55.470Z,5.28
2022-08-28T21:32:22.373Z,5.25
2022-08-28T21:34:49.352Z,5.35
2022-08-28T21:37:16.330Z,5.38
2022-08-28T21:39:43.219Z,5.63
2022-08-28T21:42:10.459Z,5.60
2022-08-28T21:44:38.691Z,5.25
2022-08-28T21:47:05.897Z,5.07
2022-08-28T21:49:32.726Z,4.85
2022-08-28T21:52:03.123Z,5.30
2022-08-28T21:54:30.754Z,5.90
2022-08-28T21:56:58.857Z,5.75
2022-08-28T21:59:28.492Z,5.43
2022-08-28T22:02:00.790Z,5.47
2022-08-28T22:04:27.784Z,5.40
2022-08-28T22:06:54.741Z,5.70
2022-08-28T22:09:21.621Z,5.50
2022-08-28T22:11:48.567Z,5.47
2022-08-28T22:14:15.503Z,5.95
2022-08-28T22:16:42.706Z,5.88
2022-08-28T22:19:09.676Z,4.95
2022-08-28T22:21:55.124Z,5.20
2022-08-28T22:24:22.074Z,5.93
2022-08-28T22:26:49.128Z,5.72
2022-08-28T22:29:21.318Z,5.50
2022-08-28T22:31:48.168Z,6.05
2022-08-28T22:34:15.231Z,5.80
2022-08-28T22:36:42.082Z,4.90
2022-08-28T22:39:08.880Z,5.20
2022-08-28T22:41:37.476Z,4.93
2022-08-28T22:44:04.864Z,5.18
2022-08-28T22:46:31.681Z,5.03
2022-08-28T22:48:59.014Z,5.20
2022-08-28T22:51:25.894Z,5.25
2022-08-28T22:53:52.803Z,4.82
2022-08-28T22:56:19.705Z,5.25
2022-08-28T22:58:46.571Z,5.60
2022-08-28T23:01:26.500Z,5.43
2022-08-28T23:03:53.506Z,5.50
2022-08-28T23:06:21.632Z,5.68
2022-08-28T23:08:48.610Z,5.40
2022-08-28T23:11:15.690Z,5.60
2022-08-28T23:13:42.570Z,5.50
2022-08-28T23:16:09.729Z,5.73
2022-08-28T23:19:06.029Z,5.82
2022-08-28T23:21:26.392Z,5.90
2022-08-28T23:23:53.822Z,6.03
2022-08-28T23:26:21.207Z,5.30
2022-08-28T23:28:48.206Z,5.93
2022-08-28T23:31:15.051Z,5.57
2022-08-28T23:33:41.983Z,6.07
2022-08-28T23:36:09.372Z,5.63
2022-08-28T23:38:38.430Z,6.73
2022-08-28T23:41:07.400Z,6.10
2022-08-28T23:43:34.213Z,6.47
2022-08-28T23:46:01.134Z,6.17
2022-08-28T23:48:29.418Z,5.50
2022-08-28T23:50:56.246Z,6.27
2022-08-28T23:53:23.065Z,6.30
2022-08-28T23:55:50.110Z,6.17
2022-08-28T23:58:18.307Z,6.07
